sensor_id;sensor_type;location;lat;lon;timestamp;P1;durP1;ratioP1;P2;durP2;ratioP2
23684;SDS011;12020;51.384;6.908;2022-08-20T00:01:50;17.90;;;16.07;;
23684;SDS011;12020;51.384;6.908;2022-08-20T00:04:16;16.45;;;14.75;;
23684;SDS011;12020;51.384;6.908;2022-08-20T00:06:42;18.45;;;15.98;;
23684;SDS011;12020;51.384;6.908;2022-08-20T00:09:09;19.05;;;16.35;;
23684;SDS011;12020;51.384;6.908;2022-08-20T00:11:34;18.70;;;16.80;;
23684;SDS011;12020;51.384;6.908;2022-08-20T00:14:01;18.27;;;16.37;;
23684;SDS011;12020;51.384;6.908;2022-08-20T00:16:32;18.87;;;16.97;;
23684;SDS011;12020;51.384;6.908;2022-08-20T00:19:01;20.17;;;18.17;;
23684;SDS011;12020;51.384;6.908;2022-08-20T00:21:28;19.27;;;17.30;;
23684;SDS011;12020;51.384;6.908;2022-08-20T00:23:55;20.35;;;18.35;;
23684;SDS011;12020;51.384;6.908;2022-08-20T00:26:21;19.80;;;17.90;;
23684;SDS011;12020;51.384;6.908;2022-08-20T00:28:48;20.08;;;17.85;;
23684;SDS011;12020;51.384;6.908;2022-08-20T00:31:16;20.60;;;18.47;;
23684;SDS011;12020;51.384;6.908;2022-08-20T00:33:46;19.33;;;17.40;;
23684;SDS011;12020;51.384;6.908;2022-08-20T00:36:12;20.53;;;18.43;;
23684;SDS011;12020;51.384;6.908;2022-08-20T00:38:40;19.40;;;17.40;;
23684;SDS011;12020;51.384;6.908;2022-08-20T00:41:11;19.88;;;17.85;;
23684;SDS011;12020;51.384;6.908;2022-08-20T00:43:50;20.05;;;17.42;;
23684;SDS011;12020;51.384;6.908;2022-08-20T00:46:33;18.95;;;16.95;;
23684;SDS011;12020;51.384;6.908;2022-08-20T00:49:01;19.33;;;17.25;;
23684;SDS011;12020;51.384;6.908;2022-08-20T00:51:31;20.73;;;18.27;;
23684;SDS011;12020;51.384;6.908;2022-08-20T00:54:03;19.88;;;17.88;;
23684;SDS011;12020;51.384;6.908;2022-08-20T00:56:32;19.67;;;17.58;;
23684;SDS011;12020;51.384;6.908;2022-08-20T00:58:59;19.35;;;17.35;;
23684;SDS011;12020;51.384;6.908;2022-08-20T01:01:25;20.58;;;18.40;;
23684;SDS011;12020;51.384;6.908;2022-08-20T01:03:51;20.67;;;18.48;;
23684;SDS011;12020;51.384;6.908;2022-08-20T01:06:20;20.58;;;18.38;;
23684;SDS011;12020;51.384;6.908;2022-08-20T01:08:46;22.40;;;18.47;;
23684;SDS011;12020;51.384;6.908;2022-08-20T01:11:12;20.70;;;18.50;;
23684;SDS011;12020;51.384;6.908;2022-08-20T01:13:43;21.02;;;18.52;;
23684;SDS011;12020;51.384;6.908;2022-08-20T01:18:45;23.10;;;19.90;;
23684;SDS011;12020;51.384;6.908;2022-08-20T01:21:13;23.33;;;19.17;;
23684;SDS011;12020;51.384;6.908;2022-08-20T01:24:00;22.27;;;19.08;;
23684;SDS011;12020;51.384;6.908;2022-08-20T01:26:43;22.50;;;19.33;;
23684;SDS011;12020;51.384;6.908;2022-08-20T01:29:13;21.05;;;18.45;;
23684;SDS011;12020;51.384;6.908;2022-08-20T01:31:42;20.42;;;18.23;;
23684;SDS011;12020;51.384;6.908;2022-08-20T01:34:09;20.58;;;18.38;;
23684;SDS011;12020;51.384;6.908;2022-08-20T01:39:14;20.50;;;18.08;;
23684;SDS011;12020;51.384;6.908;2022-08-20T01:44:47;20.02;;;17.95;;
23684;SDS011;12020;51.384;6.908;2022-08-20T01:47:23;21.17;;;17.95;;
23684;SDS011;12020;51.384;6.908;2022-08-20T01:49:51;21.08;;;18.85;;
23684;SDS011;12020;51.384;6.908;2022-08-20T01:55:00;21.05;;;18.42;;
23684;SDS011;12020;51.384;6.908;2022-08-20T01:57:26;20.10;;;17.58;;
23684;SDS011;12020;51.384;6.908;2022-08-20T01:59:53;19.67;;;17.58;;
23684;SDS011;12020;51.384;6.908;2022-08-20T02:02:22;20.43;;;17.13;;
23684;SDS011;12020;51.384;6.908;2022-08-20T02:04:51;19.65;;;17.55;;
23684;SDS011;12020;51.384;6.908;2022-08-20T02:07:18;21.05;;;18.00;;
23684;SDS011;12020;51.384;6.908;2022-08-20T02:09:46;18.83;;;16.83;;
23684;SDS011;12020;51.384;6.908;2022-08-20T02:12:13;19.70;;;17.60;;
23684;SDS011;12020;51.384;6.908;2022-08-20T02:14:40;19.02;;;17.02;;
23684;SDS011;12020;51.384;6.908;2022-08-20T02:17:09;19.88;;;17.50;;
23684;SDS011;12020;51.384;6.908;2022-08-20T02:19:45;19.63;;;17.53;;
23684;SDS011;12020;51.384;6.908;2022-08-20T02:24:53;17.38;;;15.57;;
23684;SDS011;12020;51.384;6.908;2022-08-20T02:27:19;18.17;;;16.27;;
23684;SDS011;12020;51.384;6.908;2022-08-20T02:29:47;17.27;;;15.48;;
23684;SDS011;12020;51.384;6.908;2022-08-20T02:32:15;18.83;;;16.83;;
23684;SDS011;12020;51.384;6.908;2022-08-20T02:34:41;17.10;;;15.30;;
23684;SDS011;12020;51.384;6.908;2022-08-20T02:37:07;18.50;;;16.50;;
23684;SDS011;12020;51.384;6.908;2022-08-20T02:39:34;17.85;;;15.95;;
23684;SDS011;12020;51.384;6.908;2022-08-20T02:42:01;18.63;;;16.30;;
23684;SDS011;12020;51.384;6.908;2022-08-20T02:44:28;18.52;;;16.65;;
23684;SDS011;12020;51.384;6.908;2022-08-20T02:46:55;18.02;;;16.02;;
23684;SDS011;12020;51.384;6.908;2022-08-20T02:49:20;16.55;;;14.85;;
23684;SDS011;12020;51.384;6.908;2022-08-20T02:51:46;17.48;;;15.57;;
23684;SDS011;12020;51.384;6.908;2022-08-20T02:54:12;16.15;;;14.45;;
23684;SDS011;12020;51.384;6.908;2022-08-20T02:56:38;17.33;;;15.57;;
23684;SDS011;12020;51.384;6.908;2022-08-20T02:59:04;17.70;;;15.90;;
23684;SDS011;12020;51.384;6.908;2022-08-20T03:01:30;18.40;;;16.40;;
23684;SDS011;12020;51.384;6.908;2022-08-20T03:03:56;18.90;;;16.90;;
23684;SDS011;12020;51.384;6.908;2022-08-20T03:06:24;19.60;;;17.45;;
23684;SDS011;12020;51.384;6.908;2022-08-20T03:08:51;18.77;;;16.58;;
23684;SDS011;12020;51.384;6.908;2022-08-20T03:11:17;20.08;;;17.98;;
23684;SDS011;12020;51.384;6.908;2022-08-20T03:13:44;20.55;;;17.95;;
23684;SDS011;12020;51.384;6.908;2022-08-20T03:16:10;17.52;;;15.73;;
23684;SDS011;12020;51.384;6.908;2022-08-20T03:18:40;19.55;;;16.90;;
23684;SDS011;12020;51.384;6.908;2022-08-20T03:21:10;18.85;;;16.85;;
23684;SDS011;12020;51.384;6.908;2022-08-20T03:23:38;19.33;;;17.23;;
23684;SDS011;12020;51.384;6.908;2022-08-20T03:26:08;20.50;;;17.73;;
23684;SDS011;12020;51.384;6.908;2022-08-20T03:28:35;20.08;;;17.88;;
23684;SDS011;12020;51.384;6.908;2022-08-20T03:31:02;19.47;;;17.20;;
23684;SDS011;12020;51.384;6.908;2022-08-20T03:33:29;19.02;;;17.00;;
23684;SDS011;12020;51.384;6.908;2022-08-20T03:35:55;18.70;;;16.70;;
23684;SDS011;12020;51.384;6.908;2022-08-20T03:38:22;19.50;;;16.77;;
23684;SDS011;12020;51.384;6.908;2022-08-20T03:40:48;19.33;;;16.90;;
23684;SDS011;12020;51.384;6.908;2022-08-20T03:43:15;20.70;;;18.30;;
23684;SDS011;12020;51.384;6.908;2022-08-20T03:45:42;21.02;;;18.73;;
23684;SDS011;12020;51.384;6.908;2022-08-20T03:48:11;22.60;;;18.33;;
23684;SDS011;12020;51.384;6.908;2022-08-20T03:50:39;20.90;;;18.65;;
23684;SDS011;12020;51.384;6.908;2022-08-20T03:53:06;20.23;;;17.70;;
23684;SDS011;12020;51.384;6.908;2022-08-20T03:55:34;19.23;;;16.70;;
23684;SDS011;12020;51.384;6.908;2022-08-20T03:58:01;20.60;;;18.23;;
23684;SDS011;12020;51.384;6.908;2022-08-20T04:00:31;19.85;;;17.70;;
23684;SDS011;12020;51.384;6.908;2022-08-20T04:03:15;20.02;;;17.83;;
23684;SDS011;12020;51.384;6.908;2022-08-20T04:05:42;21.63;;;18.90;;
23684;SDS011;12020;51.384;6.908;2022-08-20T04:08:11;20.13;;;17.95;;
23684;SDS011;12020;51.384;6.908;2022-08-20T04:10:40;18.30;;;16.40;;
23684;SDS011;12020;51.384;6.908;2022-08-20T04:13:06;18.30;;;16.45;;
23684;SDS011;12020;51.384;6.908;2022-08-20T04:15:32;21.17;;;17.95;;
23684;SDS011;12020;51.384;6.908;2022-08-20T04:18:01;20.50;;;18.27;;
23684;SDS011;12020;51.384;6.908;2022-08-20T04:20:29;21.20;;;18.55;;
23684;SDS011;12020;51.384;6.908;2022-08-20T04:22:55;23.40;;;19.63;;
23684;SDS011;12020;51.384;6.908;2022-08-20T04:25:21;21.53;;;18.67;;
23684;SDS011;12020;51.384;6.908;2022-08-20T04:27:49;21.50;;;19.20;;
23684;SDS011;12020;51.384;6.908;2022-08-20T04:30:16;22.00;;;18.77;;
23684;SDS011;12020;51.384;6.908;2022-08-20T04:32:44;21.70;;;19.33;;
23684;SDS011;12020;51.384;6.908;2022-08-20T04:35:11;21.33;;;18.38;;
23684;SDS011;12020;51.384;6.908;2022-08-20T04:37:43;21.35;;;18.30;;
23684;SDS011;12020;51.384;6.908;2022-08-20T04:40:15;20.23;;;18.02;;
23684;SDS011;12020;51.384;6.908;2022-08-20T04:43:01;20.50;;;18.15;;
23684;SDS011;12020;51.384;6.908;2022-08-20T04:45:32;20.30;;;18.10;;
23684;SDS011;12020;51.384;6.908;2022-08-20T04:48:00;20.77;;;17.52;;
23684;SDS011;12020;51.384;6.908;2022-08-20T04:50:32;21.52;;;18.33;;
23684;SDS011;12020;51.384;6.908;2022-08-20T04:53:00;20.40;;;18.17;;
23684;SDS011;12020;51.384;6.908;2022-08-20T04:55:27;22.00;;;18.55;;
23684;SDS011;12020;51.384;6.908;2022-08-20T04:57:54;19.80;;;17.13;;
23684;SDS011;12020;51.384;6.908;2022-08-20T05:00:22;21.15;;;17.75;;
23684;SDS011;12020;51.384;6.908;2022-08-20T05:02:48;18.17;;;16.27;;
23684;SDS011;12020;51.384;6.908;2022-08-20T05:05:13;19.43;;;17.10;;
23684;SDS011;12020;51.384;6.908;2022-08-20T05:07:40;20.07;;;17.87;;
23684;SDS011;12020;51.384;6.908;2022-08-20T05:10:09;20.08;;;16.85;;
23684;SDS011;12020;51.384;6.908;2022-08-20T05:12:39;19.50;;;17.25;;
23684;SDS011;12020;51.384;6.908;2022-08-20T05:15:06;20.65;;;17.25;;
23684;SDS011;12020;51.384;6.908;2022-08-20T05:17:35;19.23;;;17.17;;
23684;SDS011;12020;51.384;6.908;2022-08-20T05:20:10;19.20;;;17.13;;
23684;SDS011;12020;51.384;6.908;2022-08-20T05:22:37;18.77;;;16.67;;
23684;SDS011;12020;51.384;6.908;2022-08-20T05:25:03;18.83;;;16.83;;
23684;SDS011;12020;51.384;6.908;2022-08-20T05:27:30;19.83;;;17.67;;
23684;SDS011;12020;51.384;6.908;2022-08-20T05:29:59;21.35;;;18.02;;
23684;SDS011;12020;51.384;6.908;2022-08-20T05:32:30;20.30;;;18.05;;
23684;SDS011;12020;51.384;6.908;2022-08-20T05:34:57;20.65;;;18.38;;
23684;SDS011;12020;51.384;6.908;2022-08-20T05:37:24;19.65;;;17.55;;
23684;SDS011;12020;51.384;6.908;2022-08-20T05:39:50;20.20;;;18.10;;
23684;SDS011;12020;51.384;6.908;2022-08-20T05:42:16;19.83;;;17.55;;
23684;SDS011;12020;51.384;6.908;2022-08-20T05:44:41;19.38;;;17.38;;
23684;SDS011;12020;51.384;6.908;2022-08-20T05:47:07;17.40;;;15.60;;
23684;SDS011;12020;51.384;6.908;2022-08-20T05:49:34;17.55;;;15.82;;
23684;SDS011;12020;51.384;6.908;2022-08-20T05:52:08;14.85;;;13.30;;
23684;SDS011;12020;51.384;6.908;2022-08-20T05:54:34;15.25;;;13.75;;
23684;SDS011;12020;51.384;6.908;2022-08-20T05:57:02;16.15;;;14.57;;
23684;SDS011;12020;51.384;6.908;2022-08-20T05:59:29;14.48;;;13.02;;
23684;SDS011;12020;51.384;6.908;2022-08-20T06:01:54;14.07;;;12.77;;
23684;SDS011;12020;51.384;6.908;2022-08-20T06:04:20;14.18;;;12.77;;
23684;SDS011;12020;51.384;6.908;2022-08-20T06:06:51;13.32;;;12.13;;
23684;SDS011;12020;51.384;6.908;2022-08-20T06:09:19;14.25;;;12.85;;
23684;SDS011;12020;51.384;6.908;2022-08-20T06:11:47;13.32;;;12.02;;
23684;SDS011;12020;51.384;6.908;2022-08-20T06:14:14;13.55;;;12.25;;
23684;SDS011;12020;51.384;6.908;2022-08-20T06:16:40;13.18;;;11.98;;
23684;SDS011;12020;51.384;6.908;2022-08-20T06:19:07;16.40;;;14.68;;
23684;SDS011;12020;51.384;6.908;2022-08-20T06:21:33;20.60;;;17.03;;
23684;SDS011;12020;51.384;6.908;2022-08-20T06:23:58;19.47;;;17.33;;
23684;SDS011;12020;51.384;6.908;2022-08-20T06:26:24;19.00;;;17.00;;
23684;SDS011;12020;51.384;6.908;2022-08-20T06:28:50;16.87;;;15.17;;
23684;SDS011;12020;51.384;6.908;2022-08-20T06:31:16;17.17;;;15.37;;
23684;SDS011;12020;51.384;6.908;2022-08-20T06:33:42;14.82;;;13.32;;
23684;SDS011;12020;51.384;6.908;2022-08-20T06:36:08;17.40;;;15.52;;
23684;SDS011;12020;51.384;6.908;2022-08-20T06:38:35;18.60;;;16.27;;
23684;SDS011;12020;51.384;6.908;2022-08-20T06:41:01;18.30;;;15.95;;
23684;SDS011;12020;51.384;6.908;2022-08-20T06:43:27;16.70;;;14.93;;
23684;SDS011;12020;51.384;6.908;2022-08-20T06:45:52;14.00;;;12.60;;
23684;SDS011;12020;51.384;6.908;2022-08-20T06:48:21;21.85;;;15.32;;
23684;SDS011;12020;51.384;6.908;2022-08-20T06:50:47;15.05;;;13.18;;
23684;SDS011;12020;51.384;6.908;2022-08-20T06:53:14;14.82;;;13.32;;
23684;SDS011;12020;51.384;6.908;2022-08-20T06:55:42;14.80;;;13.20;;
23684;SDS011;12020;51.384;6.908;2022-08-20T06:58:11;16.90;;;15.05;;
23684;SDS011;12020;51.384;6.908;2022-08-20T07:00:39;17.75;;;15.30;;
23684;SDS011;12020;51.384;6.908;2022-08-20T07:03:06;15.37;;;13.83;;
23684;SDS011;12020;51.384;6.908;2022-08-20T07:05:33;16.48;;;13.18;;
23684;SDS011;12020;51.384;6.908;2022-08-20T07:08:01;17.37;;;15.60;;
23684;SDS011;12020;51.384;6.908;2022-08-20T07:10:27;20.77;;;18.52;;
23684;SDS011;12020;51.384;6.908;2022-08-20T07:12:54;21.83;;;19.50;;
23684;SDS011;12020;51.384;6.908;2022-08-20T07:15:23;21.63;;;18.98;;
23684;SDS011;12020;51.384;6.908;2022-08-20T07:17:50;20.80;;;18.42;;
23684;SDS011;12020;51.384;6.908;2022-08-20T07:20:21;20.88;;;18.73;;
23684;SDS011;12020;51.384;6.908;2022-08-20T07:22:48;23.55;;;21.05;;
23684;SDS011;12020;51.384;6.908;2022-08-20T07:25:14;28.75;;;25.75;;
23684;SDS011;12020;51.384;6.908;2022-08-20T07:27:42;25.20;;;22.60;;
23684;SDS011;12020;51.384;6.908;2022-08-20T07:30:10;36.58;;;32.75;;
23684;SDS011;12020;51.384;6.908;2022-08-20T07:33:07;31.95;;;28.73;;
23684;SDS011;12020;51.384;6.908;2022-08-20T07:35:33;38.65;;;34.50;;
23684;SDS011;12020;51.384;6.908;2022-08-20T07:37:59;36.97;;;33.27;;
23684;SDS011;12020;51.384;6.908;2022-08-20T07:40:26;35.22;;;31.73;;
23684;SDS011;12020;51.384;6.908;2022-08-20T07:42:56;39.13;;;35.03;;
23684;SDS011;12020;51.384;6.908;2022-08-20T07:45:26;37.80;;;34.03;;
23684;SDS011;12020;51.384;6.908;2022-08-20T07:47:52;35.58;;;32.00;;
23684;SDS011;12020;51.384;6.908;2022-08-20T07:50:20;32.60;;;29.50;;
23684;SDS011;12020;51.384;6.908;2022-08-20T07:52:48;27.33;;;24.55;;
23684;SDS011;12020;51.384;6.908;2022-08-20T07:55:16;26.70;;;24.08;;
23684;SDS011;12020;51.384;6.908;2022-08-20T07:57:43;23.77;;;21.48;;
23684;SDS011;12020;51.384;6.908;2022-08-20T08:00:11;25.65;;;23.05;;
23684;SDS011;12020;51.384;6.908;2022-08-20T08:02:38;28.35;;;25.45;;
23684;SDS011;12020;51.384;6.908;2022-08-20T08:05:04;39.33;;;35.03;;
23684;SDS011;12020;51.384;6.908;2022-08-20T08:07:31;43.55;;;38.95;;
23684;SDS011;12020;51.384;6.908;2022-08-20T08:09:57;40.58;;;36.42;;
23684;SDS011;12020;51.384;6.908;2022-08-20T08:12:26;46.33;;;41.38;;
23684;SDS011;12020;51.384;6.908;2022-08-20T08:14:58;43.53;;;39.08;;
23684;SDS011;12020;51.384;6.908;2022-08-20T08:17:27;40.95;;;36.63;;
23684;SDS011;12020;51.384;6.908;2022-08-20T08:19:56;39.55;;;35.40;;
23684;SDS011;12020;51.384;6.908;2022-08-20T08:22:23;41.65;;;37.30;;
23684;SDS011;12020;51.384;6.908;2022-08-20T08:24:50;42.90;;;35.03;;
23684;SDS011;12020;51.384;6.908;2022-08-20T08:27:17;39.45;;;35.22;;
23684;SDS011;12020;51.384;6.908;2022-08-20T08:29:44;40.63;;;35.67;;
23684;SDS011;12020;51.384;6.908;2022-08-20T08:32:20;35.78;;;32.17;;
23684;SDS011;12020;51.384;6.908;2022-08-20T08:34:46;36.70;;;32.63;;
23684;SDS011;12020;51.384;6.908;2022-08-20T08:37:15;37.72;;;32.95;;
23684;SDS011;12020;51.384;6.908;2022-08-20T08:39:43;39.13;;;33.87;;
23684;SDS011;12020;51.384;6.908;2022-08-20T08:42:43;37.22;;;33.13;;
23684;SDS011;12020;51.384;6.908;2022-08-20T08:45:09;36.25;;;30.60;;
23684;SDS011;12020;51.384;6.908;2022-08-20T08:47:41;34.53;;;30.73;;
23684;SDS011;12020;51.384;6.908;2022-08-20T08:50:19;33.50;;;29.90;;
23684;SDS011;12020;51.384;6.908;2022-08-20T08:52:51;31.63;;;28.17;;
23684;SDS011;12020;51.384;6.908;2022-08-20T08:55:26;32.35;;;28.92;;
23684;SDS011;12020;51.384;6.908;2022-08-20T08:57:56;34.20;;;29.85;;
23684;SDS011;12020;51.384;6.908;2022-08-20T09:00:26;33.08;;;29.58;;
23684;SDS011;12020;51.384;6.908;2022-08-20T09:03:05;31.50;;;28.17;;
23684;SDS011;12020;51.384;6.908;2022-08-20T09:08:17;36.15;;;29.58;;
23684;SDS011;12020;51.384;6.908;2022-08-20T09:10:50;34.92;;;30.63;;
23684;SDS011;12020;51.384;6.908;2022-08-20T09:13:18;30.05;;;26.95;;
23684;SDS011;12020;51.384;6.908;2022-08-20T09:15:44;31.35;;;28.02;;
23684;SDS011;12020;51.384;6.908;2022-08-20T09:18:12;32.30;;;27.85;;
23684;SDS011;12020;51.384;6.908;2022-08-20T09:20:41;31.23;;;26.98;;
23684;SDS011;12020;51.384;6.908;2022-08-20T09:23:09;28.63;;;25.52;;
23684;SDS011;12020;51.384;6.908;2022-08-20T09:25:36;29.55;;;26.33;;
23684;SDS011;12020;51.384;6.908;2022-08-20T09:28:02;27.10;;;24.13;;
23684;SDS011;12020;51.384;6.908;2022-08-20T09:30:36;27.30;;;23.53;;
23684;SDS011;12020;51.384;6.908;2022-08-20T09:33:02;25.33;;;22.08;;
23684;SDS011;12020;51.384;6.908;2022-08-20T09:35:33;27.52;;;23.73;;
23684;SDS011;12020;51.384;6.908;2022-08-20T09:37:59;31.42;;;25.88;;
23684;SDS011;12020;51.384;6.908;2022-08-20T09:40:27;24.35;;;21.75;;
23684;SDS011;12020;51.384;6.908;2022-08-20T09:42:53;24.80;;;22.10;;
23684;SDS011;12020;51.384;6.908;2022-08-20T09:45:19;24.67;;;21.17;;
23684;SDS011;12020;51.384;6.908;2022-08-20T09:47:46;24.83;;;20.83;;
23684;SDS011;12020;51.384;6.908;2022-08-20T09:50:13;22.63;;;20.20;;
23684;SDS011;12020;51.384;6.908;2022-08-20T10:00:16;20.95;;;18.33;;
23684;SDS011;12020;51.384;6.908;2022-08-20T10:02:45;19.75;;;17.50;;
23684;SDS011;12020;51.384;6.908;2022-08-20T10:05:11;20.52;;;17.33;;
23684;SDS011;12020;51.384;6.908;2022-08-20T10:07:38;19.33;;;16.73;;
23684;SDS011;12020;51.384;6.908;2022-08-20T10:12:35;20.63;;;18.42;;
23684;SDS011;12020;51.384;6.908;2022-08-20T10:15:02;21.70;;;18.13;;
23684;SDS011;12020;51.384;6.908;2022-08-20T10:17:28;19.77;;;17.42;;
23684;SDS011;12020;51.384;6.908;2022-08-20T10:19:54;21.20;;;18.10;;
23684;SDS011;12020;51.384;6.908;2022-08-20T10:22:20;20.87;;;18.67;;
23684;SDS011;12020;51.384;6.908;2022-08-20T10:24:45;24.08;;;17.55;;
23684;SDS011;12020;51.384;6.908;2022-08-20T10:27:11;22.08;;;18.48;;
23684;SDS011;12020;51.384;6.908;2022-08-20T10:29:37;20.80;;;18.55;;
23684;SDS011;12020;51.384;6.908;2022-08-20T10:32:13;21.93;;;18.83;;
23684;SDS011;12020;51.384;6.908;2022-08-20T10:34:40;21.53;;;18.63;;
23684;SDS011;12020;51.384;6.908;2022-08-20T10:37:08;21.77;;;17.92;;
23684;SDS011;12020;51.384;6.908;2022-08-20T10:39:34;22.10;;;18.45;;
23684;SDS011;12020;51.384;6.908;2022-08-20T10:42:00;24.23;;;18.77;;
23684;SDS011;12020;51.384;6.908;2022-08-20T10:44:26;21.57;;;17.73;;
23684;SDS011;12020;51.384;6.908;2022-08-20T10:46:51;22.67;;;20.27;;
23684;SDS011;12020;51.384;6.908;2022-08-20T10:49:17;22.37;;;19.97;;
23684;SDS011;12020;51.384;6.908;2022-08-20T10:51:43;22.90;;;19.67;;
23684;SDS011;12020;51.384;6.908;2022-08-20T10:54:08;23.98;;;19.58;;
23684;SDS011;12020;51.384;6.908;2022-08-20T10:56:34;21.27;;;17.58;;
23684;SDS011;12020;51.384;6.908;2022-08-20T10:59:00;20.00;;;17.08;;
23684;SDS011;12020;51.384;6.908;2022-08-20T11:01:25;23.53;;;18.10;;
23684;SDS011;12020;51.384;6.908;2022-08-20T11:03:51;22.97;;;18.10;;
23684;SDS011;12020;51.384;6.908;2022-08-20T11:06:17;22.80;;;18.67;;
23684;SDS011;12020;51.384;6.908;2022-08-20T11:08:43;21.27;;;18.77;;
23684;SDS011;12020;51.384;6.908;2022-08-20T11:11:09;22.20;;;19.10;;
23684;SDS011;12020;51.384;6.908;2022-08-20T11:13:35;22.07;;;19.57;;
23684;SDS011;12020;51.384;6.908;2022-08-20T11:16:01;24.60;;;21.20;;
23684;SDS011;12020;51.384;6.908;2022-08-20T11:18:28;26.67;;;23.00;;
23684;SDS011;12020;51.384;6.908;2022-08-20T11:20:54;25.02;;;22.45;;
23684;SDS011;12020;51.384;6.908;2022-08-20T11:23:20;26.52;;;23.73;;
23684;SDS011;12020;51.384;6.908;2022-08-20T11:25:46;23.90;;;21.38;;
23684;SDS011;12020;51.384;6.908;2022-08-20T11:28:12;22.77;;;19.80;;
23684;SDS011;12020;51.384;6.908;2022-08-20T11:30:39;23.75;;;21.27;;
23684;SDS011;12020;51.384;6.908;2022-08-20T11:33:05;24.15;;;20.52;;
23684;SDS011;12020;51.384;6.908;2022-08-20T11:35:32;24.17;;;20.98;;
23684;SDS011;12020;51.384;6.908;2022-08-20T11:37:59;24.50;;;21.60;;
23684;SDS011;12020;51.384;6.908;2022-08-20T11:40:26;19.98;;;17.90;;
23684;SDS011;12020;51.384;6.908;2022-08-20T11:42:53;20.73;;;17.67;;
23684;SDS011;12020;51.384;6.908;2022-08-20T11:45:19;22.57;;;19.37;;
23684;SDS011;12020;51.384;6.908;2022-08-20T11:47:45;20.97;;;17.90;;
23684;SDS011;12020;51.384;6.908;2022-08-20T11:50:12;18.98;;;16.95;;
23684;SDS011;12020;51.384;6.908;2022-08-20T11:52:40;19.87;;;17.77;;
23684;SDS011;12020;51.384;6.908;2022-08-20T11:55:06;19.20;;;17.20;;
23684;SDS011;12020;51.384;6.908;2022-08-20T11:57:35;20.80;;;18.30;;
23684;SDS011;12020;51.384;6.908;2022-08-20T12:00:04;19.23;;;17.17;;
23684;SDS011;12020;51.384;6.908;2022-08-20T12:02:34;20.00;;;17.17;;
23684;SDS011;12020;51.384;6.908;2022-08-20T12:05:00;18.87;;;16.70;;
23684;SDS011;12020;51.384;6.908;2022-08-20T12:07:26;19.58;;;16.50;;
23684;SDS011;12020;51.384;6.908;2022-08-20T12:09:53;20.70;;;18.65;;
23684;SDS011;12020;51.384;6.908;2022-08-20T12:12:19;18.98;;;16.98;;
23684;SDS011;12020;51.384;6.908;2022-08-20T12:14:49;19.45;;;17.23;;
23684;SDS011;12020;51.384;6.908;2022-08-20T12:17:16;19.48;;;17.25;;
23684;SDS011;12020;51.384;6.908;2022-08-20T12:19:51;19.10;;;17.05;;
23684;SDS011;12020;51.384;6.908;2022-08-20T12:22:19;18.95;;;16.95;;
23684;SDS011;12020;51.384;6.908;2022-08-20T12:24:45;18.40;;;16.60;;
23684;SDS011;12020;51.384;6.908;2022-08-20T12:27:15;19.23;;;17.30;;
23684;SDS011;12020;51.384;6.908;2022-08-20T12:29:43;20.40;;;18.38;;
23684;SDS011;12020;51.384;6.908;2022-08-20T12:32:10;18.15;;;16.35;;
23684;SDS011;12020;51.384;6.908;2022-08-20T12:34:37;17.08;;;15.43;;
23684;SDS011;12020;51.384;6.908;2022-08-20T12:37:10;17.88;;;15.95;;
23684;SDS011;12020;51.384;6.908;2022-08-20T12:39:39;17.85;;;15.98;;
23684;SDS011;12020;51.384;6.908;2022-08-20T12:42:07;16.53;;;14.87;;
23684;SDS011;12020;51.384;6.908;2022-08-20T12:44:33;15.38;;;13.90;;
23684;SDS011;12020;51.384;6.908;2022-08-20T12:47:11;17.20;;;15.50;;
23684;SDS011;12020;51.384;6.908;2022-08-20T12:49:41;16.75;;;15.00;;
23684;SDS011;12020;51.384;6.908;2022-08-20T12:52:12;16.90;;;15.10;;
23684;SDS011;12020;51.384;6.908;2022-08-20T12:54:38;17.08;;;15.40;;
23684;SDS011;12020;51.384;6.908;2022-08-20T12:57:04;18.20;;;16.40;;
23684;SDS011;12020;51.384;6.908;2022-08-20T12:59:33;17.90;;;15.88;;
23684;SDS011;12020;51.384;6.908;2022-08-20T13:01:59;14.80;;;13.40;;
23684;SDS011;12020;51.384;6.908;2022-08-20T13:04:26;13.82;;;12.32;;
23684;SDS011;12020;51.384;6.908;2022-08-20T13:06:58;15.13;;;13.57;;
23684;SDS011;12020;51.384;6.908;2022-08-20T13:09:25;15.15;;;13.55;;
23684;SDS011;12020;51.384;6.908;2022-08-20T13:11:51;14.10;;;12.63;;
23684;SDS011;12020;51.384;6.908;2022-08-20T13:14:17;13.87;;;12.37;;
23684;SDS011;12020;51.384;6.908;2022-08-20T13:16:42;15.30;;;12.60;;
23684;SDS011;12020;51.384;6.908;2022-08-20T13:19:08;13.57;;;12.05;;
23684;SDS011;12020;51.384;6.908;2022-08-20T13:21:34;13.60;;;12.13;;
23684;SDS011;12020;51.384;6.908;2022-08-20T13:24:02;13.10;;;11.80;;
23684;SDS011;12020;51.384;6.908;2022-08-20T13:26:28;13.68;;;12.25;;
23684;SDS011;12020;51.384;6.908;2022-08-20T13:28:54;12.65;;;10.40;;
23684;SDS011;12020;51.384;6.908;2022-08-20T13:31:20;13.87;;;11.70;;
23684;SDS011;12020;51.384;6.908;2022-08-20T13:33:46;16.70;;;12.63;;
23684;SDS011;12020;51.384;6.908;2022-08-20T13:36:11;14.13;;;12.25;;
23684;SDS011;12020;51.384;6.908;2022-08-20T13:38:37;14.30;;;12.75;;
23684;SDS011;12020;51.384;6.908;2022-08-20T13:41:03;14.30;;;12.90;;
23684;SDS011;12020;51.384;6.908;2022-08-20T13:43:29;12.90;;;11.50;;
23684;SDS011;12020;51.384;6.908;2022-08-20T13:45:54;13.43;;;11.50;;
23684;SDS011;12020;51.384;6.908;2022-08-20T13:48:21;15.85;;;12.30;;
23684;SDS011;12020;51.384;6.908;2022-08-20T13:50:47;15.45;;;12.82;;
23684;SDS011;12020;51.384;6.908;2022-08-20T13:53:13;17.03;;;13.50;;
23684;SDS011;12020;51.384;6.908;2022-08-20T13:55:39;14.45;;;12.85;;
23684;SDS011;12020;51.384;6.908;2022-08-20T13:58:04;17.30;;;12.90;;
23684;SDS011;12020;51.384;6.908;2022-08-20T14:00:32;13.45;;;11.73;;
23684;SDS011;12020;51.384;6.908;2022-08-20T14:02:59;13.15;;;10.77;;
23684;SDS011;12020;51.384;6.908;2022-08-20T14:05:25;14.63;;;11.60;;
23684;SDS011;12020;51.384;6.908;2022-08-20T14:07:52;15.32;;;11.68;;
23684;SDS011;12020;51.384;6.908;2022-08-20T14:10:19;11.15;;;8.15;;
23684;SDS011;12020;51.384;6.908;2022-08-20T14:12:48;12.10;;;6.95;;
23684;SDS011;12020;51.384;6.908;2022-08-20T14:15:14;10.80;;;7.00;;
23684;SDS011;12020;51.384;6.908;2022-08-20T14:17:41;9.88;;;6.43;;
23684;SDS011;12020;51.384;6.908;2022-08-20T14:20:15;8.85;;;6.40;;
23684;SDS011;12020;51.384;6.908;2022-08-20T14:22:43;11.57;;;8.52;;
23684;SDS011;12020;51.384;6.908;2022-08-20T14:25:10;13.98;;;8.68;;
23684;SDS011;12020;51.384;6.908;2022-08-20T14:27:43;10.85;;;7.65;;
23684;SDS011;12020;51.384;6.908;2022-08-20T14:30:10;12.85;;;7.25;;
23684;SDS011;12020;51.384;6.908;2022-08-20T14:32:38;9.75;;;6.63;;
23684;SDS011;12020;51.384;6.908;2022-08-20T14:35:04;9.60;;;6.07;;
23684;SDS011;12020;51.384;6.908;2022-08-20T14:37:33;9.70;;;6.40;;
23684;SDS011;12020;51.384;6.908;2022-08-20T14:40:02;10.45;;;6.60;;
23684;SDS011;12020;51.384;6.908;2022-08-20T14:42:30;9.37;;;6.27;;
23684;SDS011;12020;51.384;6.908;2022-08-20T14:44:56;9.77;;;6.30;;
23684;SDS011;12020;51.384;6.908;2022-08-20T14:47:28;11.30;;;7.22;;
23684;SDS011;12020;51.384;6.908;2022-08-20T14:49:56;11.25;;;7.50;;
23684;SDS011;12020;51.384;6.908;2022-08-20T14:52:28;10.13;;;7.47;;
23684;SDS011;12020;51.384;6.908;2022-08-20T14:54:54;11.37;;;8.00;;